Terminal Aerodrome Forecast
Issued by NWS Caribou, ME

Home | Current Version | Previous Version | Text Only | Print | Product List | Glossary On
Versions: 1 2 3 4 5 6 7 8 9 10 11 12 13 14 15 16 17 18
000
FTUS41 KCAR 152300
TAFCAR
TAF
KCAR 152320Z 1600/1624 26004KT P6SM SCT060
     FM160600 20004KT P6SM BKN060
     FM161000 20005KT P6SM OVC025
     FM161100 20005KT 5SM -SHRA OVC015
     FM161800 23007KT P6SM SCT015 BKN030=

USA.gov is the U.S. government's official web portal to all federal, state and local government web resources and services.